createdAt,value
2018-10-19T00:06:35.376Z,2.7
2018-10-19T00:21:38.502Z,2.2
2018-10-19T00:36:49.049Z,2.4
2018-10-19T00:51:55.550Z,2.4
2018-10-19T01:07:08.988Z,2
2018-10-19T01:21:51.189Z,2.3
2018-10-19T01:36:47.314Z,2.1
2018-10-19T01:51:57.657Z,2.1
2018-10-19T02:07:16.145Z,2.1
2018-10-19T02:21:18.446Z,2.3
2018-10-19T02:36:20.560Z,1.9
2018-10-19T02:51:29.737Z,2
2018-10-19T03:06:47.414Z,2
2018-10-19T03:21:42.577Z,1.9
2018-10-19T03:36:40.854Z,1.9
2018-10-19T03:51:50.526Z,1.9
2018-10-19T04:06:47.081Z,2
2018-10-19T04:21:58.581Z,1.9
2018-10-19T04:37:06.039Z,2.1
2018-10-19T04:52:22.817Z,1.7
2018-10-19T05:06:33.330Z,1.7
2018-10-19T05:22:26.262Z,1.8
2018-10-19T05:37:23.252Z,1.8
2018-10-19T05:52:23.545Z,1.9
2018-10-19T06:07:28.158Z,2
2018-10-19T06:22:26.151Z,2
2018-10-19T06:37:20.292Z,2.3
2018-10-19T06:51:34.121Z,3.4
2018-10-19T07:06:52.445Z,3.7
2018-10-19T07:22:07.542Z,3.8
2018-10-19T07:37:14.592Z,3.9
2018-10-19T07:52:26.524Z,4.2
2018-10-19T08:07:26.212Z,3.8
2018-10-19T08:21:47.899Z,12.4
2018-10-19T08:37:32.347Z,17.6
2018-10-19T08:52:31.188Z,8.9
2018-10-19T09:07:17.586Z,5.3
2018-10-19T09:22:09.243Z,4.4
2018-10-19T09:37:11.304Z,4.2
2018-10-19T09:52:26.432Z,4.6
2018-10-19T10:06:51.714Z,4.8
2018-10-19T10:22:40.400Z,13.4
2018-10-19T10:37:01.503Z,18.4
2018-10-19T10:51:50.738Z,15.3
2018-10-19T11:06:59.818Z,13.2
2018-10-19T11:22:04.779Z,14.1
2018-10-19T11:29:26.641Z,14.1
2018-10-19T11:37:34.319Z,14.2
2018-10-19T11:52:15.511Z,10.2
2018-10-19T12:07:24.716Z,9
2018-10-19T12:22:24.377Z,9.2
2018-10-19T12:37:20.425Z,10.8
2018-10-19T12:52:21.366Z,9.8
2018-10-19T13:07:32.704Z,13
2018-10-19T13:21:59.615Z,10.1
2018-10-19T13:37:07.649Z,6.8
2018-10-19T13:52:21.164Z,5.6
2018-10-19T14:07:19.690Z,7.3
2018-10-19T14:22:46.863Z,6.2
2018-10-19T14:36:54.673Z,6
2018-10-19T14:52:01.335Z,5.6
2018-10-19T15:07:11.090Z,5.6
2018-10-19T15:22:26.400Z,6.1
2018-10-19T15:37:55.008Z,6.8
2018-10-19T15:52:24.838Z,7.9
2018-10-19T16:07:00.819Z,8.2
2018-10-19T16:22:29.323Z,9.7
2018-10-19T16:37:09.942Z,9.2
2018-10-19T16:52:24.788Z,9.7
2018-10-19T17:07:41.968Z,9.9
2018-10-19T17:22:38.975Z,9.2
2018-10-19T17:37:01.294Z,8.5
2018-10-19T17:52:33.865Z,8.4
2018-10-19T18:08:02.761Z,7.9
2018-10-19T18:22:30.923Z,7.5
2018-10-19T18:38:03.649Z,7.4
2018-10-19T18:52:44.871Z,6.6
2018-10-19T19:07:38.256Z,6.8
2018-10-19T19:22:15.566Z,5.9
2018-10-19T19:37:54.895Z,5.6
2018-10-19T19:52:37.673Z,5.8
2018-10-19T20:08:15.412Z,4.8
2018-10-19T20:23:04.460Z,4.9
2018-10-19T20:37:35.199Z,4.7
2018-10-19T20:52:54.141Z,4.4
2018-10-19T21:07:22.237Z,4.5
2018-10-19T21:22:55.523Z,4
2018-10-19T21:37:27.740Z,3.9
2018-10-19T21:53:13.516Z,3.5
2018-10-19T22:07:26.535Z,3.5
2018-10-19T22:23:12.330Z,3.4
2018-10-19T22:37:37.507Z,3.2
2018-10-19T22:53:10.574Z,2.9
2018-10-19T23:07:50.820Z,3.1
2018-10-19T23:23:20.947Z,3
2018-10-19T23:37:32.049Z,2.9
2018-10-19T23:52:56.366Z,3
